Time;durP1;ratioP1;P1;durP2;ratioP2;P2;SDS_P1;SDS_P2;PMS_P1;PMS_P2;Temp;Humidity;BMP_temperature;BMP_pressure;BME280_temperature;BME280_humidity;BME280_pressure;Samples;Min_cycle;Max_cycle;Signal;HPM_P1;HPM_P2
2021/09/02 00:00:36;;;;;;;6.78;5.78;;;;;;;18.86;62.48;99154.63;5074666;28;20024;-51
2021/09/02 00:03:02;;;;;;;8.77;5.90;;;;;;;18.66;62.55;99153.22;5074664;28;20483;-50
2021/09/02 00:05:28;;;;;;;7.70;6.28;;;;;;;18.27;63.59;99147.78;5073217;28;20020;-50
2021/09/02 00:07:54;;;;;;;7.95;7.15;;;;;;;18.04;64.91;99154.00;5074580;28;20371;-50
2021/09/02 00:10:20;;;;;;;6.45;5.80;;;;;;;18.11;65.19;99153.84;5074458;28;20059;-51
2021/09/02 00:12:45;;;;;;;15.23;9.63;;;;;;;18.23;64.70;99153.78;5072996;28;20020;-50
2021/09/02 00:15:11;;;;;;;14.32;11.25;;;;;;;18.44;64.65;99147.00;5074397;28;20029;-50
2021/09/02 00:17:37;;;;;;;19.60;14.80;;;;;;;18.74;63.91;99152.81;5073011;28;20021;-50
2021/09/02 00:20:05;;;;;;;10.23;8.60;;;;;;;19.13;63.00;99149.41;5072730;28;20120;-50
2021/09/02 00:22:31;;;;;;;12.15;8.30;;;;;;;19.44;61.78;99147.19;5072991;28;20029;-50
2021/09/02 00:24:56;;;;;;;6.57;5.63;;;;;;;19.54;60.63;99142.78;5072943;28;20115;-50
2021/09/02 00:27:22;;;;;;;9.98;7.32;;;;;;;19.37;60.70;99144.69;5074159;28;20020;-50
2021/09/02 00:29:48;;;;;;;8.13;5.40;;;;;;;19.27;60.49;99145.34;5074110;28;20054;-50
2021/09/02 00:32:15;;;;;;;7.97;6.03;;;;;;;19.02;60.62;99145.00;5074141;28;20016;-50
2021/09/02 00:34:41;;;;;;;11.20;6.90;;;;;;;18.67;61.42;99138.88;5074085;28;20044;-50
2021/09/02 00:37:07;;;;;;;8.45;6.38;;;;;;;18.46;62.43;99144.91;5074031;28;20067;-50
2021/09/02 00:39:32;;;;;;;8.77;7.18;;;;;;;18.38;62.62;99140.00;5074014;28;20017;-51
2021/09/02 00:41:58;;;;;;;16.25;7.50;;;;;;;18.23;62.90;99135.19;5073885;28;20028;-50
2021/09/02 00:44:41;;;;;;;7.40;6.60;;;;;;;18.11;63.64;99133.44;5072546;28;20031;-51
2021/09/02 00:47:10;;;;;;;10.02;7.20;;;;;;;17.81;64.22;99135.47;5073855;28;20528;-50
2021/09/02 00:49:37;;;;;;;8.13;6.75;;;;;;;17.47;64.79;99135.34;5073645;28;20021;-50
2021/09/02 00:52:19;;;;;;;10.15;9.02;;;;;;;17.20;65.93;99133.19;5073713;28;20074;-51
2021/09/02 00:54:48;;;;;;;7.70;6.90;;;;;;;17.03;66.01;99127.00;5073797;28;20016;-50
2021/09/02 00:57:18;;;;;;;16.25;7.53;;;;;;;16.97;66.45;99134.00;5072323;28;20024;-50
2021/09/02 00:59:46;;;;;;;8.38;6.55;;;;;;;17.02;66.19;99135.97;5072609;28;20035;-50
2021/09/02 01:02:12;;;;;;;10.45;6.40;;;;;;;17.14;65.90;99139.41;5073549;28;20025;-50
2021/09/02 01:04:38;;;;;;;8.40;6.25;;;;;;;17.28;65.35;99145.28;5072318;28;20023;-50
2021/09/02 01:07:05;;;;;;;9.73;6.30;;;;;;;17.19;65.36;99150.16;5073508;28;20024;-50
2021/09/02 01:09:32;;;;;;;9.85;5.93;;;;;;;17.04;65.52;99153.25;5073344;28;20506;-50
2021/09/02 01:11:58;;;;;;;11.77;6.70;;;;;;;16.93;65.72;99146.91;5071982;28;20502;-51
2021/09/02 01:14:24;;;;;;;8.93;6.78;;;;;;;16.91;66.04;99150.84;5071942;28;20112;-50
2021/09/02 01:16:51;;;;;;;9.02;7.55;;;;;;;17.12;66.49;99142.31;5073249;28;20501;-50
2021/09/02 01:19:20;;;;;;;7.95;6.43;;;;;;;17.68;65.57;99147.19;5071842;28;20539;-50
2021/09/02 01:21:48;;;;;;;25.08;22.77;;;;;;;18.31;64.21;99143.59;5071613;28;20605;-50
2021/09/02 01:24:15;;;;;;;7.90;7.10;;;;;;;18.90;62.33;99137.91;5071210;28;20052;-50
2021/09/02 01:26:41;;;;;;;12.23;6.50;;;;;;;19.26;61.05;99135.75;5072988;28;20032;-50
2021/09/02 01:29:11;;;;;;;7.35;5.60;;;;;;;19.34;59.77;99142.53;5073041;28;20027;-50
2021/09/02 01:31:39;;;;;;;9.35;5.70;;;;;;;19.32;59.60;99145.44;5072904;28;20032;-50
2021/09/02 01:34:08;;;;;;;6.97;4.85;;;;;;;19.34;59.27;99139.88;5071604;28;20024;-51
2021/09/02 01:36:34;;;;;;;11.18;5.88;;;;;;;19.23;59.00;99143.44;5071476;28;20021;-51
2021/09/02 01:38:59;;;;;;;9.70;5.60;;;;;;;18.92;59.62;99146.47;5071524;28;20020;-50
2021/09/02 01:41:25;;;;;;;9.57;6.65;;;;;;;18.84;59.80;99144.22;5071368;28;20039;-50
2021/09/02 01:43:51;;;;;;;9.45;6.00;;;;;;;18.80;59.85;99150.28;5072797;28;20100;-50
2021/09/02 01:46:17;;;;;;;10.75;5.13;;;;;;;18.81;59.99;99152.66;5071264;28;20502;-50
2021/09/02 01:48:43;;;;;;;6.75;4.68;;;;;;;19.03;59.50;99151.94;5072592;28;20096;-51
2021/09/02 01:51:08;;;;;;;7.07;4.75;;;;;;;19.14;58.45;99153.69;5072483;28;20448;-50
2021/09/02 01:53:34;;;;;;;5.15;4.55;;;;;;;18.68;58.70;99142.34;5071170;28;20563;-50
2021/09/02 01:56:00;;;;;;;9.07;6.35;;;;;;;18.08;60.65;99141.84;5072470;28;20483;-50
2021/09/02 01:58:26;;;;;;;8.27;6.10;;;;;;;17.54;62.26;99136.00;5072377;28;20455;-51
2021/09/02 02:00:52;;;;;;;10.85;6.90;;;;;;;17.09;63.71;99140.13;5072338;28;20048;-50
2021/09/02 02:03:17;;;;;;;8.70;6.75;;;;;;;16.80;64.71;99130.41;5070993;28;20059;-51
2021/09/02 02:05:43;;;;;;;9.55;7.38;;;;;;;16.64;65.00;99137.19;5070964;28;20033;-50
2021/09/02 02:08:15;;;;;;;10.95;8.60;;;;;;;16.73;65.17;99143.75;5070952;28;20025;-50
2021/09/02 02:10:41;;;;;;;8.45;5.78;;;;;;;17.17;64.49;99133.66;5072411;28;20108;-50
2021/09/02 02:13:06;;;;;;;14.50;8.35;;;;;;;17.63;63.75;99134.63;5072108;28;20111;-50
2021/09/02 02:15:35;;;;;;;8.15;6.60;;;;;;;18.16;62.49;99148.63;5070796;28;20021;-51
2021/09/02 02:18:01;;;;;;;9.73;6.47;;;;;;;18.70;61.17;99145.56;5070834;28;20020;-50
2021/09/02 02:20:26;;;;;;;6.28;5.18;;;;;;;18.92;59.51;99143.81;5070649;28;20055;-50
2021/09/02 02:22:52;;;;;;;8.82;5.22;;;;;;;18.50;59.29;99135.41;5072094;28;20070;-51
2021/09/02 02:25:18;;;;;;;8.77;4.85;;;;;;;17.88;60.23;99138.81;5072022;28;20146;-50
2021/09/02 02:27:43;;;;;;;6.32;5.22;;;;;;;17.30;61.65;99140.56;5070671;28;20025;-50
2021/09/02 02:30:13;;;;;;;7.78;6.43;;;;;;;16.89;63.27;99140.47;5071923;28;20409;-50
2021/09/02 02:32:39;;;;;;;7.03;4.88;;;;;;;16.82;63.79;99141.59;5070629;28;20108;-50
2021/09/02 02:35:05;;;;;;;8.82;5.13;;;;;;;16.86;63.64;99142.75;5071863;28;20028;-50
2021/09/02 02:37:31;;;;;;;9.55;5.45;;;;;;;16.85;63.60;99141.16;5070978;28;20020;-51
2021/09/02 02:39:56;;;;;;;8.15;5.85;;;;;;;16.77;63.98;99144.94;5070577;28;20549;-50
2021/09/02 02:42:22;;;;;;;9.70;5.78;;;;;;;16.80;64.05;99144.44;5071781;28;20066;-51
2021/09/02 02:44:48;;;;;;;9.90;4.97;;;;;;;16.73;64.07;99138.47;5070510;28;20055;-50
2021/09/02 02:47:14;;;;;;;6.72;5.20;;;;;;;16.52;64.41;99131.84;5071779;28;20514;-50
2021/09/02 02:49:40;;;;;;;6.57;4.93;;;;;;;16.24;64.92;99133.31;5071695;28;20020;-50
2021/09/02 02:52:08;;;;;;;7.82;5.53;;;;;;;16.09;65.38;99133.72;5070364;28;20020;-50
2021/09/02 02:54:34;;;;;;;6.35;5.63;;;;;;;16.02;65.45;99133.00;5070256;28;20396;-50
2021/09/02 02:57:00;;;;;;;7.38;5.20;;;;;;;16.01;65.55;99131.38;5071659;28;20549;-50
2021/09/02 02:59:26;;;;;;;10.45;5.13;;;;;;;15.93;65.53;99132.50;5070305;28;20116;-50
2021/09/02 03:01:52;;;;;;;8.93;5.07;;;;;;;16.12;66.19;99135.91;5070261;28;20398;-50
2021/09/02 03:04:18;;;;;;;8.95;4.65;;;;;;;16.48;65.12;99131.53;5071609;28;20025;-50
2021/09/02 03:06:44;;;;;;;7.60;5.47;;;;;;;16.47;64.66;99129.09;5070567;28;20043;-50
2021/09/02 03:09:09;;;;;;;5.68;5.00;;;;;;;16.28;64.78;99131.00;5071517;28;20021;-50
2021/09/02 03:11:38;;;;;;;9.20;5.85;;;;;;;16.08;65.27;99126.81;5071495;28;20028;-51
2021/09/02 03:14:04;;;;;;;6.78;5.72;;;;;;;15.93;65.93;99123.75;5071531;28;20025;-50
2021/09/02 03:16:29;;;;;;;6.55;5.95;;;;;;;15.75;66.44;99122.78;5071465;28;20081;-50
2021/09/02 03:18:55;;;;;;;6.57;5.88;;;;;;;15.70;66.45;99122.59;5070147;28;20085;-50
2021/09/02 03:21:21;;;;;;;9.30;5.53;;;;;;;15.63;66.70;99129.00;5069899;28;20051;-50
2021/09/02 03:23:47;;;;;;;8.20;5.20;;;;;;;15.56;66.71;99129.88;5071387;28;20063;-51
2021/09/02 03:26:13;;;;;;;7.75;5.22;;;;;;;15.51;66.76;99126.28;5071347;28;20052;-50
2021/09/02 03:28:39;;;;;;;7.85;5.60;;;;;;;15.54;66.82;99125.84;5071397;28;20017;-50
2021/09/02 03:31:04;;;;;;;9.27;4.78;;;;;;;15.78;66.70;99129.47;5071220;28;20020;-50
2021/09/02 03:33:30;;;;;;;8.23;5.47;;;;;;;15.82;66.05;99125.34;5069971;28;20116;-50
2021/09/02 03:35:56;;;;;;;10.57;6.28;;;;;;;15.68;66.22;99124.66;5070007;28;20379;-51
2021/09/02 03:38:21;;;;;;;13.45;5.93;;;;;;;15.60;66.55;99127.59;5069939;28;20032;-50
2021/09/02 03:40:47;;;;;;;14.38;5.90;;;;;;;15.78;66.54;99130.25;5069944;28;20128;-50
2021/09/02 03:43:13;;;;;;;15.05;5.63;;;;;;;16.07;65.82;99129.69;5069911;28;20032;-50
2021/09/02 03:45:39;;;;;;;11.02;5.80;;;;;;;16.13;65.26;99139.38;5071197;28;20518;-50
2021/09/02 03:48:05;;;;;;;28.50;6.32;;;;;;;16.09;65.54;99125.75;5071221;28;20111;-50
2021/09/02 03:50:31;;;;;;;16.35;8.32;;;;;;;16.14;65.28;99128.56;5073488;28;20017;-50
2021/09/02 03:52:56;;;;;;;10.88;5.72;;;;;;;16.27;65.14;99116.16;5073501;28;20033;-50
2021/09/02 03:55:23;;;;;;;7.88;4.85;;;;;;;16.33;64.51;99115.25;5074821;28;20073;-50
2021/09/02 03:57:49;;;;;;;10.93;5.75;;;;;;;16.19;64.54;99114.63;5074729;28;20027;-50
2021/09/02 04:00:15;;;;;;;9.55;5.55;;;;;;;16.15;64.88;99116.91;5074603;28;20024;-50
2021/09/02 04:02:40;;;;;;;50.45;45.00;;;;;;;16.21;64.85;99115.22;5074689;28;20025;-50
2021/09/02 04:05:09;;;;;;;58.53;49.90;;;;;;;16.31;64.69;99122.63;5073232;28;20040;-50
2021/09/02 04:07:35;;;;;;;58.20;52.33;;;;;;;16.48;64.15;99122.75;5074581;28;20099;-50
2021/09/02 04:10:00;;;;;;;10.85;9.73;;;;;;;16.58;63.88;99120.38;5074439;28;20100;-51
2021/09/02 04:12:29;;;;;;;12.30;5.78;;;;;;;16.43;63.91;99112.84;5074493;28;20474;-51
2021/09/02 04:14:55;;;;;;;9.73;6.07;;;;;;;16.32;63.92;99111.00;5073194;28;20031;-50
2021/09/02 04:17:20;;;;;;;8.02;5.97;;;;;;;16.12;64.18;99116.59;5074390;28;20021;-50
2021/09/02 04:19:46;;;;;;;13.38;5.82;;;;;;;15.94;65.03;99112.94;5075551;28;20025;-50
2021/09/02 04:22:12;;;;;;;12.95;11.13;;;;;;;15.89;65.25;99104.06;5114994;28;20026;-50
2021/09/02 04:24:37;;;;;;;13.73;6.18;;;;;;;16.02;65.08;99105.72;5113597;28;20046;-50
2021/09/02 04:27:03;;;;;;;14.55;6.10;;;;;;;16.15;64.52;99102.88;5096490;28;20024;-50
2021/09/02 04:29:29;;;;;;;11.18;5.65;;;;;;;16.08;64.56;99113.56;5096551;28;20076;-50
2021/09/02 04:31:54;;;;;;;7.82;5.80;;;;;;;15.95;64.85;99111.91;5114643;28;20563;-51
2021/09/02 04:34:20;;;;;;;11.23;5.57;;;;;;;15.83;65.04;99110.25;5114986;28;20039;-50
2021/09/02 04:36:46;;;;;;;11.98;10.75;;;;;;;15.70;65.38;99106.72;5096402;28;20034;-50
2021/09/02 04:39:12;;;;;;;9.40;5.75;;;;;;;15.58;65.70;99095.28;5114578;28;20020;-50
2021/09/02 04:41:38;;;;;;;13.57;6.72;;;;;;;15.57;66.03;99102.41;5096308;28;20043;-50
2021/09/02 04:44:03;;;;;;;11.48;5.00;;;;;;;15.64;65.90;99099.69;5096229;28;20020;-50
2021/09/02 04:46:29;;;;;;;13.23;5.95;;;;;;;15.85;65.82;99102.91;5114449;28;20016;-51
2021/09/02 04:48:55;;;;;;;21.50;9.40;;;;;;;16.09;65.72;99107.22;5114472;28;20043;-50
2021/09/02 04:51:21;;;;;;;15.45;6.18;;;;;;;16.70;65.00;99107.09;5095933;28;20031;-50
2021/09/02 04:53:46;;;;;;;16.30;6.18;;;;;;;17.35;63.39;99101.69;5114371;28;20023;-51
2021/09/02 04:56:12;;;;;;;15.50;7.40;;;;;;;17.76;61.79;99099.81;5114269;28;20069;-50
2021/09/02 04:58:39;;;;;;;16.25;6.15;;;;;;;17.80;61.42;99096.69;5095975;28;20032;-50
2021/09/02 05:01:06;;;;;;;14.43;5.80;;;;;;;17.89;61.45;99096.13;5113389;28;20020;-50
2021/09/02 05:03:31;;;;;;;25.15;6.68;;;;;;;18.14;60.70;99100.25;5095800;28;20020;-50
2021/09/02 05:05:58;;;;;;;15.13;5.40;;;;;;;18.30;60.44;99101.31;5095781;28;20030;-50
2021/09/02 05:08:24;;;;;;;20.88;6.82;;;;;;;18.46;59.74;99094.41;5095752;28;20035;-50
2021/09/02 05:10:50;;;;;;;12.30;6.45;;;;;;;18.27;59.73;99094.66;5095613;28;20023;-50
2021/09/02 05:13:16;;;;;;;24.48;13.85;;;;;;;18.45;59.39;99098.94;5095676;28;20031;-50
2021/09/02 05:15:42;;;;;;;32.55;8.32;;;;;;;18.64;58.78;99090.69;5113868;28;20027;-50
2021/09/02 05:18:07;;;;;;;30.42;8.20;;;;;;;18.68;58.54;99105.13;5113825;28;20096;-50
2021/09/02 05:20:33;;;;;;;26.85;13.82;;;;;;;18.58;58.79;99120.91;5113529;28;20043;-50
2021/09/02 05:22:59;;;;;;;17.17;7.13;;;;;;;18.79;58.00;99120.19;5112453;28;20136;-50
2021/09/02 05:25:25;;;;;;;14.50;5.88;;;;;;;19.12;56.86;99118.56;5095340;28;20119;-50
2021/09/02 05:27:51;;;;;;;24.23;10.35;;;;;;;19.36;55.61;99124.44;5113719;28;20020;-51
2021/09/02 05:30:17;;;;;;;21.25;6.03;;;;;;;19.85;55.55;99118.38;5113500;28;20035;-51
2021/09/02 05:32:43;;;;;;;10.75;5.68;;;;;;;20.58;53.63;99124.09;5113627;28;20349;-52
2021/09/02 05:35:10;;;;;;;13.50;5.68;;;;;;;21.10;52.34;99122.59;5113507;28;20024;-51
2021/09/02 05:37:36;;;;;;;22.13;6.35;;;;;;;21.73;50.95;99114.63;5095177;28;20476;-50
2021/09/02 05:40:04;;;;;;;17.60;7.93;;;;;;;22.36;49.18;99116.38;5095087;28;20062;-50
2021/09/02 05:42:30;;;;;;;11.32;5.18;;;;;;;22.80;47.83;99124.63;5113377;28;20024;-51
2021/09/02 05:44:55;;;;;;;26.33;5.55;;;;;;;23.26;46.37;99124.56;5095052;28;20027;-51
2021/09/02 05:47:21;;;;;;;29.50;6.75;;;;;;;23.60;45.25;99126.53;5113266;28;20011;-50
2021/09/02 05:49:47;;;;;;;26.65;5.78;;;;;;;23.67;45.33;99128.94;5094924;28;20024;-50
2021/09/02 05:52:13;;;;;;;25.58;6.05;;;;;;;23.82;44.81;99128.88;5113217;28;20022;-51
2021/09/02 05:54:39;;;;;;;14.88;6.22;;;;;;;23.96;44.05;99139.78;5113219;28;20035;-50
2021/09/02 05:57:05;;;;;;;30.83;5.97;;;;;;;23.99;44.17;99138.47;5113161;28;20161;-50
2021/09/02 05:59:31;;;;;;;33.22;21.25;;;;;;;24.17;44.20;99131.66;5094783;28;20110;-50
2021/09/02 06:01:57;;;;;;;24.13;8.82;;;;;;;24.27;43.76;99129.69;5113024;28;20100;-48
2021/09/02 06:04:22;;;;;;;35.53;9.50;;;;;;;24.05;44.15;99123.94;5112989;28;20016;-48
2021/09/02 06:06:48;;;;;;;15.85;5.65;;;;;;;23.84;44.87;99131.28;5094635;28;20031;-48
2021/09/02 06:09:14;;;;;;;28.55;5.60;;;;;;;23.83;44.82;99133.19;5094590;28;20051;-48
2021/09/02 06:11:40;;;;;;;17.83;5.85;;;;;;;24.15;44.45;99125.72;5094303;28;20107;-48
2021/09/02 06:14:05;;;;;;;17.20;5.57;;;;;;;24.48;43.54;99127.63;5094496;28;20080;-48
2021/09/02 06:16:31;;;;;;;24.90;6.05;;;;;;;24.97;42.23;99120.50;5112788;28;20388;-48
2021/09/02 06:18:57;;;;;;;49.28;7.75;;;;;;;25.38;41.52;99121.97;5112774;28;20370;-48
2021/09/02 06:21:23;;;;;;;52.10;7.15;;;;;;;25.73;41.06;99123.38;5112142;28;20386;-48
2021/09/02 06:23:48;;;;;;;50.75;7.93;;;;;;;26.16;39.99;99119.84;5094394;28;20497;-48
2021/09/02 06:26:14;;;;;;;34.55;6.72;;;;;;;26.46;39.27;99113.97;5112611;28;20016;-49
2021/09/02 06:28:41;;;;;;;28.92;5.93;;;;;;;26.74;39.06;99116.75;5112568;28;20389;-48
2021/09/02 06:31:06;;;;;;;54.20;7.13;;;;;;;27.01;38.32;99110.59;5112414;28;20045;-49
2021/09/02 06:33:34;;;;;;;34.53;6.90;;;;;;;27.24;38.00;99105.34;5112533;28;20549;-48
2021/09/02 06:36:00;;;;;;;41.38;8.43;;;;;;;27.49;37.81;99104.03;5112712;28;20092;-49
2021/09/02 06:38:26;;;;;;;48.65;11.93;;;;;;;27.66;37.15;99104.19;5094144;28;20488;-49
2021/09/02 06:40:52;;;;;;;30.05;7.72;;;;;;;27.66;37.22;99108.78;5112357;28;20031;-48
2021/09/02 06:43:17;;;;;;;32.65;7.35;;;;;;;27.51;37.79;99107.22;5094105;28;20024;-48
2021/09/02 06:45:43;;;;;;;28.63;6.32;;;;;;;27.46;38.26;99101.94;5112336;28;20026;-48
2021/09/02 06:48:09;;;;;;;41.75;8.93;;;;;;;27.65;38.24;99099.91;5112364;28;20396;-48
2021/09/02 06:50:37;;;;;;;21.75;7.07;;;;;;;27.91;37.94;99103.94;5093862;28;20059;-48
2021/09/02 06:53:03;;;;;;;18.98;5.93;;;;;;;28.24;37.22;99101.81;5094185;28;20100;-48
2021/09/02 06:55:29;;;;;;;15.98;6.60;;;;;;;28.94;36.17;99099.53;5112253;28;20486;-49
2021/09/02 06:57:56;;;;;;;28.77;7.47;;;;;;;29.90;34.71;99095.13;5112262;28;20055;-51
2021/09/02 07:00:21;;;;;;;17.92;7.07;;;;;;;30.72;32.94;99095.19;5112131;28;20032;-51
2021/09/02 07:02:47;;;;;;;20.20;7.78;;;;;;;31.16;32.45;99098.53;5093791;28;20020;-51
2021/09/02 07:05:17;;;;;;;24.90;16.00;;;;;;;31.29;31.75;99104.84;5093828;28;20034;-51
2021/09/02 07:07:44;;;;;;;22.08;11.68;;;;;;;31.44;32.00;99103.47;5112298;28;20027;-51
2021/09/02 07:10:10;;;;;;;33.72;12.32;;;;;;;31.88;31.31;99103.97;5111982;28;20072;-51
2021/09/02 07:12:36;;;;;;;18.85;8.50;;;;;;;32.12;30.68;99095.19;5110752;28;20050;-51
2021/09/02 07:15:02;;;;;;;21.25;8.52;;;;;;;32.15;30.37;99096.41;5093715;28;20023;-51
2021/09/02 07:17:27;;;;;;;19.08;7.35;;;;;;;32.20;30.30;99097.00;5112070;28;20439;-51
2021/09/02 07:19:53;;;;;;;25.27;8.95;;;;;;;32.56;29.72;99098.28;5093322;28;20080;-51
2021/09/02 07:22:19;;;;;;;17.40;7.80;;;;;;;32.77;29.42;99100.88;5112114;28;20023;-51
2021/09/02 07:24:44;;;;;;;12.95;7.28;;;;;;;32.89;29.03;99099.31;5116069;28;20027;-51
2021/09/02 07:27:10;;;;;;;25.00;13.98;;;;;;;32.31;29.93;99100.09;5097586;28;20034;-51
2021/09/02 07:29:36;;;;;;;25.63;8.30;;;;;;;31.60;31.08;99090.94;5116044;28;20197;-51
2021/09/02 07:32:02;;;;;;;13.90;7.57;;;;;;;31.70;30.92;99097.88;5115857;28;20024;-51
2021/09/02 07:34:28;;;;;;;18.45;7.53;;;;;;;31.38;30.92;99108.28;5115886;28;20027;-51
2021/09/02 07:36:55;;;;;;;20.48;7.95;;;;;;;30.29;32.83;99100.69;5116099;28;20042;-51
2021/09/02 07:39:21;;;;;;;114.10;102.40;;;;;;;30.44;32.79;99102.91;5097416;28;20026;-51
2021/09/02 07:41:47;;;;;;;18.88;14.75;;;;;;;31.45;31.16;99105.06;5115717;28;20038;-51
2021/09/02 07:44:13;;;;;;;160.23;93.85;;;;;;;32.58;29.58;99100.66;5097331;28;20037;-51
2021/09/02 07:46:38;;;;;;;21.55;13.80;;;;;;;33.15;29.25;99091.63;5097345;28;20049;-49
2021/09/02 07:49:04;;;;;;;14.20;8.95;;;;;;;33.98;27.71;99083.19;5114293;28;20024;-49
2021/09/02 07:51:30;;;;;;;25.20;20.30;;;;;;;34.70;27.06;99085.09;5097124;28;20073;-48
2021/09/02 07:53:56;;;;;;;66.05;58.83;;;;;;;35.40;26.17;99074.28;5114201;28;20504;-49
2021/09/02 07:56:21;;;;;;;18.90;7.97;;;;;;;35.67;25.42;99077.19;5114220;28;20024;-49
2021/09/02 07:58:47;;;;;;;19.63;6.70;;;;;;;36.01;24.95;99080.19;5115475;28;20027;-48
2021/09/02 08:01:14;;;;;;;17.02;7.38;;;;;;;35.95;24.91;99082.44;5115406;28;20107;-49
2021/09/02 08:03:41;;;;;;;17.38;6.97;;;;;;;36.30;24.81;99086.22;5115347;28;20030;-49
2021/09/02 08:06:07;;;;;;;16.90;7.25;;;;;;;36.96;23.85;99090.47;5115221;28;20030;-51
2021/09/02 08:08:33;;;;;;;17.95;6.47;;;;;;;37.05;23.88;99090.22;5115298;28;20028;-52
2021/09/02 08:10:59;;;;;;;18.13;6.18;;;;;;;37.20;23.83;99088.50;5115135;28;20508;-51
2021/09/02 08:13:25;;;;;;;15.23;7.00;;;;;;;37.35;23.87;99089.50;5115159;28;20496;-51
2021/09/02 08:15:51;;;;;;;8.52;5.10;;;;;;;37.42;23.88;99091.53;5115114;28;20022;-52
2021/09/02 08:18:17;;;;;;;11.70;6.10;;;;;;;37.89;22.94;99101.13;5115028;28;20400;-51
2021/09/02 08:20:43;;;;;;;17.65;5.95;;;;;;;38.41;22.11;99088.38;5114421;28;20048;-51
2021/09/02 08:23:11;;;;;;;9.70;5.65;;;;;;;38.79;21.78;99094.59;5114979;28;20062;-51
2021/09/02 08:25:37;;;;;;;52.60;7.90;;;;;;;38.95;21.50;99100.59;5096513;28;20089;-51
2021/09/02 08:28:03;;;;;;;36.47;7.38;;;;;;;39.05;21.37;99095.59;5096534;28;20436;-51
2021/09/02 08:30:29;;;;;;;34.05;6.20;;;;;;;38.72;21.55;99103.59;5114744;28;20019;-51
2021/09/02 08:32:56;;;;;;;13.05;5.38;;;;;;;38.75;21.20;99104.78;5096431;28;20442;-51
2021/09/02 08:35:31;;;;;;;18.00;5.35;;;;;;;38.67;21.49;99108.63;5113347;28;20027;-52
2021/09/02 08:38:02;;;;;;;14.00;4.43;;;;;;;38.53;21.61;99101.84;5114595;28;20102;-52
2021/09/02 08:40:32;;;;;;;21.80;6.30;;;;;;;38.09;21.80;99099.03;5114604;28;20027;-52
2021/09/02 08:42:59;;;;;;;18.92;5.63;;;;;;;37.68;22.58;99109.91;5096217;28;20096;-51
2021/09/02 08:45:27;;;;;;;22.75;5.95;;;;;;;37.25;23.11;99106.53;5114519;28;20020;-51
2021/09/02 08:47:53;;;;;;;35.85;7.25;;;;;;;37.36;23.51;99108.28;5096142;28;20106;-51
2021/09/02 08:50:24;;;;;;;10.25;4.88;;;;;;;37.63;21.92;99102.81;5114336;28;20110;-51
2021/09/02 08:52:52;;;;;;;11.60;5.35;;;;;;;37.68;22.03;99107.94;5114367;28;20024;-51
2021/09/02 08:55:18;;;;;;;12.30;4.45;;;;;;;37.90;22.03;99113.69;5114280;28;20027;-52
2021/09/02 08:57:48;;;;;;;9.57;4.45;;;;;;;38.30;22.04;99114.94;5114635;28;20023;-51
2021/09/02 09:00:14;;;;;;;8.38;4.57;;;;;;;38.04;22.23;99115.81;5114542;28;20485;-52
2021/09/02 09:02:42;;;;;;;5.28;3.88;;;;;;;37.85;22.09;99114.00;5095811;28;20039;-52
2021/09/02 09:05:10;;;;;;;11.60;4.20;;;;;;;37.97;22.46;99111.81;5113983;28;20028;-51
2021/09/02 09:07:48;;;;;;;6.25;4.43;;;;;;;37.93;22.85;99104.69;5114157;28;20068;-51
2021/09/02 09:10:15;;;;;;;17.13;4.78;;;;;;;38.00;22.67;99106.75;5114255;28;20023;-52
2021/09/02 09:12:44;;;;;;;8.13;4.22;;;;;;;38.44;21.81;99100.56;5114044;28;20023;-51
2021/09/02 09:15:17;;;;;;;24.45;5.13;;;;;;;39.13;21.27;99102.72;5113909;28;20015;-52
2021/09/02 09:17:44;;;;;;;13.30;3.97;;;;;;;39.33;21.05;99104.00;5095689;28;20401;-52
2021/09/02 09:20:10;;;;;;;6.95;4.22;;;;;;;39.42;20.58;99109.22;5087676;28;20045;-51
2021/09/02 09:22:36;;;;;;;18.90;4.43;;;;;;;39.53;20.31;99106.50;5073484;28;20024;-51
2021/09/02 09:25:11;;;;;;;20.38;4.63;;;;;;;39.60;20.62;99101.03;5073104;28;20023;-52
2021/09/02 09:27:49;;;;;;;11.95;4.53;;;;;;;39.73;20.59;99098.75;5073104;28;20031;-51
2021/09/02 09:30:19;;;;;;;20.15;8.40;;;;;;;39.93;20.58;99097.25;5073242;28;20062;-52
2021/09/02 09:32:53;;;;;;;11.05;4.13;;;;;;;39.81;20.07;99097.59;5073022;28;20024;-51
2021/09/02 09:35:21;;;;;;;36.42;6.10;;;;;;;39.19;20.78;99094.91;5072910;28;20028;-51
2021/09/02 09:37:48;;;;;;;10.43;5.30;;;;;;;39.41;20.74;99098.56;5072934;28;20047;-51
2021/09/02 09:40:22;;;;;;;18.20;5.05;;;;;;;40.26;20.44;99092.59;5071453;28;20033;-52
2021/09/02 09:43:00;;;;;;;9.65;4.00;;;;;;;40.68;19.79;99085.56;5072810;28;20138;-51
2021/09/02 09:45:40;;;;;;;8.25;4.38;;;;;;;40.31;19.96;99089.50;5072329;28;20025;-52
2021/09/02 09:48:34;;;;;;;9.27;4.30;;;;;;;40.29;19.77;99088.31;5072743;28;20482;-51
2021/09/02 09:51:13;;;;;;;17.63;8.73;;;;;;;40.68;19.55;99082.03;5072569;28;20024;-50
2021/09/02 09:53:42;;;;;;;19.38;5.75;;;;;;;40.48;19.89;99087.16;5072587;28;20051;-51
2021/09/02 09:56:08;;;;;;;9.32;3.72;;;;;;;40.00;19.92;99084.69;5072489;28;20024;-51
2021/09/02 09:58:35;;;;;;;7.43;3.80;;;;;;;39.64;20.14;99077.09;5072482;28;20028;-52
2021/09/02 10:01:05;;;;;;;6.85;3.42;;;;;;;39.89;19.39;99068.97;5072410;28;20055;-50
2021/09/02 10:03:33;;;;;;;7.25;4.63;;;;;;;39.48;19.77;99071.97;5072413;28;20013;-52
2021/09/02 10:06:04;;;;;;;6.35;3.30;;;;;;;38.65;20.49;99067.84;5072230;28;20074;-52
2021/09/02 10:08:38;;;;;;;5.28;3.38;;;;;;;37.50;21.95;99066.59;5072309;28;20108;-51
2021/09/02 10:11:07;;;;;;;10.60;3.60;;;;;;;36.59;22.53;99068.38;5072243;28;20432;-51
2021/09/02 10:13:33;;;;;;;21.77;4.85;;;;;;;36.30;23.52;99059.69;5070965;28;20094;-51
2021/09/02 10:16:00;;;;;;;19.42;4.93;;;;;;;36.75;23.48;99063.56;5072160;28;20111;-52
2021/09/02 10:18:29;;;;;;;7.80;3.35;;;;;;;37.43;22.31;99057.50;5072182;28;20016;-51
2021/09/02 10:20:56;;;;;;;6.95;3.00;;;;;;;36.92;22.28;99061.47;5070580;28;20054;-52
2021/09/02 10:23:24;;;;;;;5.90;3.00;;;;;;;36.63;22.69;99052.03;5072305;28;20028;-52
2021/09/02 10:25:51;;;;;;;5.35;3.35;;;;;;;36.69;22.64;99051.38;5072021;28;20491;-52
2021/09/02 10:28:29;;;;;;;4.53;3.17;;;;;;;36.46;22.94;99045.09;5070774;28;20542;-51
2021/09/02 10:30:58;;;;;;;5.53;3.25;;;;;;;36.19;22.83;99047.78;5070624;28;20029;-52
2021/09/02 10:33:43;;;;;;;5.13;3.10;;;;;;;35.70;23.55;99048.38;5072022;28;20040;-52
2021/09/02 10:36:11;;;;;;;7.43;3.20;;;;;;;35.96;23.73;99047.69;5071989;28;20379;-52
2021/09/02 10:38:41;;;;;;;4.60;3.25;;;;;;;35.14;24.72;99044.84;5070603;28;20486;-52
2021/09/02 10:41:08;;;;;;;7.53;4.88;;;;;;;35.26;25.72;99043.16;5071891;28;20386;-51
2021/09/02 10:44:07;;;;;;;10.65;3.88;;;;;;;36.79;23.90;99030.81;5071900;28;20017;-51
2021/09/02 10:46:38;;;;;;;6.40;3.90;;;;;;;37.60;22.58;99026.84;5064121;28;20029;-52
2021/09/02 10:49:22;;;;;;;7.13;3.78;;;;;;;38.17;22.23;99023.94;5070544;28;20127;-51
2021/09/02 10:51:59;;;;;;;7.40;4.70;;;;;;;38.46;22.32;99030.47;5071921;28;20501;-52
2021/09/02 10:54:29;;;;;;;4.25;3.35;;;;;;;37.94;21.87;99024.09;5071806;28;20048;-51
2021/09/02 10:56:55;;;;;;;8.15;3.58;;;;;;;36.83;23.14;99031.66;5071178;28;20371;-52
2021/09/02 10:59:41;;;;;;;12.82;4.30;;;;;;;35.93;24.74;99021.91;5071448;28;20025;-51
2021/09/02 11:02:31;;;;;;;7.43;4.03;;;;;;;36.77;23.52;99017.50;5071712;28;20028;-52
2021/09/02 11:05:00;;;;;;;11.27;4.10;;;;;;;37.81;22.65;99014.53;5064980;28;20571;-51
2021/09/02 11:07:45;;;;;;;5.40;3.78;;;;;;;37.45;22.54;99014.91;5071654;28;20044;-52
2021/09/02 11:10:12;;;;;;;9.13;4.45;;;;;;;36.76;23.43;99012.38;5071492;28;20108;-51
2021/09/02 11:12:38;;;;;;;6.68;3.72;;;;;;;36.84;23.43;99014.06;5071455;28;20039;-52
2021/09/02 11:15:05;;;;;;;11.82;4.35;;;;;;;36.71;23.59;99020.94;5071492;28;20533;-52
2021/09/02 11:17:31;;;;;;;6.50;3.38;;;;;;;36.56;23.30;99030.81;5071548;28;20028;-52
2021/09/02 11:19:57;;;;;;;19.00;5.97;;;;;;;35.92;24.71;99031.25;5074979;28;20371;-52
2021/09/02 11:22:23;;;;;;;12.70;5.47;;;;;;;36.46;24.34;99028.69;5112032;28;20355;-51
2021/09/02 11:24:52;;;;;;;11.43;4.53;;;;;;;37.84;22.69;99016.53;5093929;28;20049;-52
2021/09/02 11:27:28;;;;;;;11.40;3.60;;;;;;;39.35;21.16;99018.50;5111938;28;20035;-51